sensor_id;sensor_type;location;lat;lon;timestamp;P1;durP1;ratioP1;P2;durP2;ratioP2
70216;SDS011;65567;55.684;37.570;2023-07-13T00:00:03;3.10;;;1.70;;
70216;SDS011;65567;55.684;37.570;2023-07-13T00:02:34;5.45;;;1.58;;
70216;SDS011;65567;55.684;37.570;2023-07-13T00:05:00;3.92;;;1.55;;
70216;SDS011;65567;55.684;37.570;2023-07-13T00:07:26;2.85;;;1.55;;
70216;SDS011;65567;55.684;37.570;2023-07-13T00:09:51;2.72;;;1.48;;
70216;SDS011;65567;55.684;37.570;2023-07-13T00:12:27;5.57;;;1.70;;
70216;SDS011;65567;55.684;37.570;2023-07-13T00:14:56;2.70;;;1.70;;
70216;SDS011;65567;55.684;37.570;2023-07-13T00:17:23;2.72;;;1.60;;
70216;SDS011;65567;55.684;37.570;2023-07-13T00:19:53;2.92;;;1.80;;
70216;SDS011;65567;55.684;37.570;2023-07-13T00:22:21;3.70;;;1.80;;
70216;SDS011;65567;55.684;37.570;2023-07-13T00:24:47;2.40;;;1.50;;
70216;SDS011;65567;55.684;37.570;2023-07-13T00:27:12;4.22;;;1.60;;
70216;SDS011;65567;55.684;37.570;2023-07-13T00:29:39;3.75;;;1.60;;
70216;SDS011;65567;55.684;37.570;2023-07-13T00:32:05;2.40;;;1.63;;
70216;SDS011;65567;55.684;37.570;2023-07-13T00:34:32;2.95;;;1.90;;
70216;SDS011;65567;55.684;37.570;2023-07-13T00:36:58;3.47;;;2.05;;
70216;SDS011;65567;55.684;37.570;2023-07-13T00:39:24;3.78;;;1.90;;
70216;SDS011;65567;55.684;37.570;2023-07-13T00:41:50;2.28;;;1.67;;
70216;SDS011;65567;55.684;37.570;2023-07-13T00:44:17;5.15;;;1.80;;
70216;SDS011;65567;55.684;37.570;2023-07-13T00:46:44;2.80;;;1.70;;
70216;SDS011;65567;55.684;37.570;2023-07-13T00:49:12;3.67;;;1.90;;
70216;SDS011;65567;55.684;37.570;2023-07-13T00:51:46;3.38;;;1.80;;
70216;SDS011;65567;55.684;37.570;2023-07-13T00:54:15;4.05;;;1.90;;
70216;SDS011;65567;55.684;37.570;2023-07-13T00:56:48;4.15;;;1.90;;
70216;SDS011;65567;55.684;37.570;2023-07-13T00:59:16;3.72;;;1.90;;
70216;SDS011;65567;55.684;37.570;2023-07-13T01:01:44;6.32;;;2.10;;
70216;SDS011;65567;55.684;37.570;2023-07-13T01:04:09;4.35;;;2.20;;
70216;SDS011;65567;55.684;37.570;2023-07-13T01:06:36;3.03;;;2.00;;
70216;SDS011;65567;55.684;37.570;2023-07-13T01:09:03;3.13;;;2.00;;
70216;SDS011;65567;55.684;37.570;2023-07-13T01:11:29;3.47;;;2.00;;
70216;SDS011;65567;55.684;37.570;2023-07-13T01:13:55;2.85;;;1.80;;
70216;SDS011;65567;55.684;37.570;2023-07-13T01:16:24;4.13;;;1.80;;
70216;SDS011;65567;55.684;37.570;2023-07-13T01:18:52;4.50;;;1.77;;
70216;SDS011;65567;55.684;37.570;2023-07-13T01:21:19;3.63;;;1.92;;
70216;SDS011;65567;55.684;37.570;2023-07-13T01:23:45;4.80;;;1.92;;
70216;SDS011;65567;55.684;37.570;2023-07-13T01:26:11;3.38;;;1.90;;
70216;SDS011;65567;55.684;37.570;2023-07-13T01:28:37;5.35;;;2.60;;
70216;SDS011;65567;55.684;37.570;2023-07-13T01:31:03;3.58;;;2.20;;
70216;SDS011;65567;55.684;37.570;2023-07-13T01:33:29;6.30;;;2.22;;
70216;SDS011;65567;55.684;37.570;2023-07-13T01:35:55;3.40;;;2.40;;
70216;SDS011;65567;55.684;37.570;2023-07-13T01:38:22;4.10;;;1.80;;
70216;SDS011;65567;55.684;37.570;2023-07-13T01:40:49;6.22;;;2.22;;
70216;SDS011;65567;55.684;37.570;2023-07-13T01:43:19;3.13;;;1.80;;
70216;SDS011;65567;55.684;37.570;2023-07-13T01:45:44;2.67;;;1.73;;
70216;SDS011;65567;55.684;37.570;2023-07-13T01:48:11;5.63;;;2.40;;
70216;SDS011;65567;55.684;37.570;2023-07-13T01:50:37;3.95;;;2.22;;
70216;SDS011;65567;55.684;37.570;2023-07-13T01:53:03;4.88;;;1.95;;
70216;SDS011;65567;55.684;37.570;2023-07-13T01:55:29;2.80;;;2.00;;
70216;SDS011;65567;55.684;37.570;2023-07-13T01:57:55;5.75;;;2.20;;
70216;SDS011;65567;55.684;37.570;2023-07-13T02:00:22;3.63;;;1.98;;
70216;SDS011;65567;55.684;37.570;2023-07-13T02:02:48;4.30;;;2.00;;
70216;SDS011;65567;55.684;37.570;2023-07-13T02:05:13;3.95;;;2.25;;
70216;SDS011;65567;55.684;37.570;2023-07-13T02:07:39;3.85;;;2.08;;
70216;SDS011;65567;55.684;37.570;2023-07-13T02:10:06;6.80;;;2.35;;
70216;SDS011;65567;55.684;37.570;2023-07-13T02:12:33;3.80;;;2.30;;
70216;SDS011;65567;55.684;37.570;2023-07-13T02:14:59;5.57;;;1.80;;
70216;SDS011;65567;55.684;37.570;2023-07-13T02:17:26;4.22;;;2.05;;
70216;SDS011;65567;55.684;37.570;2023-07-13T02:19:52;3.67;;;2.05;;
70216;SDS011;65567;55.684;37.570;2023-07-13T02:22:18;2.97;;;2.00;;
70216;SDS011;65567;55.684;37.570;2023-07-13T02:24:43;16.45;;;3.05;;
70216;SDS011;65567;55.684;37.570;2023-07-13T02:27:09;3.03;;;1.75;;
70216;SDS011;65567;55.684;37.570;2023-07-13T02:29:35;3.08;;;1.92;;
70216;SDS011;65567;55.684;37.570;2023-07-13T02:32:01;3.40;;;1.92;;
70216;SDS011;65567;55.684;37.570;2023-07-13T02:34:27;2.80;;;1.75;;
70216;SDS011;65567;55.684;37.570;2023-07-13T02:36:52;3.95;;;2.10;;
70216;SDS011;65567;55.684;37.570;2023-07-13T02:39:18;3.47;;;1.88;;
70216;SDS011;65567;55.684;37.570;2023-07-13T02:41:44;3.20;;;1.80;;
70216;SDS011;65567;55.684;37.570;2023-07-13T02:44:11;4.45;;;2.40;;
70216;SDS011;65567;55.684;37.570;2023-07-13T02:46:38;4.72;;;2.15;;
70216;SDS011;65567;55.684;37.570;2023-07-13T02:49:04;4.18;;;1.92;;
70216;SDS011;65567;55.684;37.570;2023-07-13T02:51:30;4.45;;;1.92;;
70216;SDS011;65567;55.684;37.570;2023-07-13T02:53:58;4.50;;;2.00;;
70216;SDS011;65567;55.684;37.570;2023-07-13T02:56:24;6.07;;;2.38;;
70216;SDS011;65567;55.684;37.570;2023-07-13T02:58:52;3.40;;;2.08;;
70216;SDS011;65567;55.684;37.570;2023-07-13T03:01:18;4.60;;;2.17;;
70216;SDS011;65567;55.684;37.570;2023-07-13T03:03:46;4.55;;;2.55;;
70216;SDS011;65567;55.684;37.570;2023-07-13T03:06:12;6.00;;;2.78;;
70216;SDS011;65567;55.684;37.570;2023-07-13T03:08:38;6.53;;;2.20;;
70216;SDS011;65567;55.684;37.570;2023-07-13T03:11:05;3.35;;;2.42;;
70216;SDS011;65567;55.684;37.570;2023-07-13T03:13:36;5.85;;;2.15;;
70216;SDS011;65567;55.684;37.570;2023-07-13T03:16:03;4.00;;;1.90;;
70216;SDS011;65567;55.684;37.570;2023-07-13T03:18:30;3.05;;;2.00;;
70216;SDS011;65567;55.684;37.570;2023-07-13T03:20:55;9.25;;;3.35;;
70216;SDS011;65567;55.684;37.570;2023-07-13T03:23:21;6.00;;;2.10;;
70216;SDS011;65567;55.684;37.570;2023-07-13T03:25:47;3.80;;;2.17;;
70216;SDS011;65567;55.684;37.570;2023-07-13T03:28:14;3.75;;;1.90;;
70216;SDS011;65567;55.684;37.570;2023-07-13T03:30:40;3.00;;;2.03;;
70216;SDS011;65567;55.684;37.570;2023-07-13T03:33:06;4.22;;;2.13;;
70216;SDS011;65567;55.684;37.570;2023-07-13T03:35:33;3.60;;;2.47;;
70216;SDS011;65567;55.684;37.570;2023-07-13T03:37:59;6.20;;;2.25;;
70216;SDS011;65567;55.684;37.570;2023-07-13T03:40:25;3.85;;;2.15;;
70216;SDS011;65567;55.684;37.570;2023-07-13T03:45:49;3.22;;;2.15;;
70216;SDS011;65567;55.684;37.570;2023-07-13T03:48:14;4.70;;;2.22;;
70216;SDS011;65567;55.684;37.570;2023-07-13T03:50:40;4.72;;;2.17;;
70216;SDS011;65567;55.684;37.570;2023-07-13T03:53:06;5.72;;;2.55;;
70216;SDS011;65567;55.684;37.570;2023-07-13T03:55:32;4.55;;;1.80;;
70216;SDS011;65567;55.684;37.570;2023-07-13T03:57:59;5.78;;;3.00;;
70216;SDS011;65567;55.684;37.570;2023-07-13T04:00:26;3.53;;;2.08;;
70216;SDS011;65567;55.684;37.570;2023-07-13T04:02:52;6.13;;;2.38;;
70216;SDS011;65567;55.684;37.570;2023-07-13T04:05:18;5.75;;;3.05;;
70216;SDS011;65567;55.684;37.570;2023-07-13T04:07:43;4.55;;;2.33;;
70216;SDS011;65567;55.684;37.570;2023-07-13T04:10:09;3.00;;;1.95;;
70216;SDS011;65567;55.684;37.570;2023-07-13T04:12:35;5.80;;;1.85;;
70216;SDS011;65567;55.684;37.570;2023-07-13T04:15:01;3.45;;;1.92;;
70216;SDS011;65567;55.684;37.570;2023-07-13T04:17:27;7.00;;;2.65;;
70216;SDS011;65567;55.684;37.570;2023-07-13T04:19:52;4.25;;;2.35;;
70216;SDS011;65567;55.684;37.570;2023-07-13T04:22:18;6.70;;;2.50;;
70216;SDS011;65567;55.684;37.570;2023-07-13T04:24:44;4.18;;;2.08;;
70216;SDS011;65567;55.684;37.570;2023-07-13T04:27:09;4.68;;;2.45;;
70216;SDS011;65567;55.684;37.570;2023-07-13T04:29:35;3.63;;;2.00;;
70216;SDS011;65567;55.684;37.570;2023-07-13T04:32:01;6.07;;;2.60;;
70216;SDS011;65567;55.684;37.570;2023-07-13T04:34:26;3.65;;;2.08;;
70216;SDS011;65567;55.684;37.570;2023-07-13T04:36:52;6.43;;;3.35;;
70216;SDS011;65567;55.684;37.570;2023-07-13T04:39:18;6.22;;;2.53;;
70216;SDS011;65567;55.684;37.570;2023-07-13T04:41:43;3.35;;;2.15;;
70216;SDS011;65567;55.684;37.570;2023-07-13T04:44:09;7.32;;;2.45;;
70216;SDS011;65567;55.684;37.570;2023-07-13T04:46:35;4.68;;;2.30;;
70216;SDS011;65567;55.684;37.570;2023-07-13T04:49:00;3.50;;;2.30;;
70216;SDS011;65567;55.684;37.570;2023-07-13T04:51:29;6.18;;;2.25;;
70216;SDS011;65567;55.684;37.570;2023-07-13T04:53:54;5.20;;;2.00;;
70216;SDS011;65567;55.684;37.570;2023-07-13T04:56:20;8.40;;;2.50;;
70216;SDS011;65567;55.684;37.570;2023-07-13T04:58:46;10.07;;;2.55;;
70216;SDS011;65567;55.684;37.570;2023-07-13T05:01:11;5.55;;;2.25;;
70216;SDS011;65567;55.684;37.570;2023-07-13T05:03:39;8.07;;;2.20;;
70216;SDS011;65567;55.684;37.570;2023-07-13T05:06:06;4.78;;;2.42;;
70216;SDS011;65567;55.684;37.570;2023-07-13T05:08:35;5.25;;;2.55;;
70216;SDS011;65567;55.684;37.570;2023-07-13T05:11:01;6.25;;;2.35;;
70216;SDS011;65567;55.684;37.570;2023-07-13T05:13:27;3.05;;;1.73;;
70216;SDS011;65567;55.684;37.570;2023-07-13T05:15:57;4.55;;;2.35;;
70216;SDS011;65567;55.684;37.570;2023-07-13T05:18:24;5.30;;;2.33;;
70216;SDS011;65567;55.684;37.570;2023-07-13T05:21:00;5.07;;;2.05;;
70216;SDS011;65567;55.684;37.570;2023-07-13T05:23:33;5.57;;;2.20;;
70216;SDS011;65567;55.684;37.570;2023-07-13T05:26:00;7.50;;;2.20;;
70216;SDS011;65567;55.684;37.570;2023-07-13T05:28:26;5.03;;;1.80;;
70216;SDS011;65567;55.684;37.570;2023-07-13T05:30:52;3.28;;;1.92;;
70216;SDS011;65567;55.684;37.570;2023-07-13T05:33:19;4.47;;;2.22;;
70216;SDS011;65567;55.684;37.570;2023-07-13T05:35:45;6.43;;;2.08;;
70216;SDS011;65567;55.684;37.570;2023-07-13T05:38:10;3.92;;;1.98;;
70216;SDS011;65567;55.684;37.570;2023-07-13T05:40:36;3.15;;;2.10;;
70216;SDS011;65567;55.684;37.570;2023-07-13T05:43:02;4.15;;;2.00;;
70216;SDS011;65567;55.684;37.570;2023-07-13T05:45:28;9.52;;;2.00;;
70216;SDS011;65567;55.684;37.570;2023-07-13T05:47:54;5.22;;;2.17;;
70216;SDS011;65567;55.684;37.570;2023-07-13T05:50:20;4.85;;;1.80;;
70216;SDS011;65567;55.684;37.570;2023-07-13T05:52:46;4.63;;;2.00;;
70216;SDS011;65567;55.684;37.570;2023-07-13T05:55:12;7.05;;;2.00;;
70216;SDS011;65567;55.684;37.570;2023-07-13T05:57:38;4.18;;;2.10;;
70216;SDS011;65567;55.684;37.570;2023-07-13T06:00:04;7.57;;;2.05;;
70216;SDS011;65567;55.684;37.570;2023-07-13T06:02:30;5.20;;;2.08;;
70216;SDS011;65567;55.684;37.570;2023-07-13T06:04:56;6.28;;;2.03;;
70216;SDS011;65567;55.684;37.570;2023-07-13T06:07:21;3.83;;;1.90;;
70216;SDS011;65567;55.684;37.570;2023-07-13T06:09:50;4.93;;;2.10;;
70216;SDS011;65567;55.684;37.570;2023-07-13T06:12:16;4.90;;;2.00;;
70216;SDS011;65567;55.684;37.570;2023-07-13T06:14:42;7.72;;;2.15;;
70216;SDS011;65567;55.684;37.570;2023-07-13T06:17:08;4.57;;;2.10;;
70216;SDS011;65567;55.684;37.570;2023-07-13T06:19:34;5.22;;;1.80;;
70216;SDS011;65567;55.684;37.570;2023-07-13T06:22:00;3.40;;;2.15;;
70216;SDS011;65567;55.684;37.570;2023-07-13T06:24:25;4.15;;;1.98;;
70216;SDS011;65567;55.684;37.570;2023-07-13T06:26:51;4.00;;;1.85;;
70216;SDS011;65567;55.684;37.570;2023-07-13T06:29:17;7.55;;;1.95;;
70216;SDS011;65567;55.684;37.570;2023-07-13T06:31:43;4.80;;;2.00;;
70216;SDS011;65567;55.684;37.570;2023-07-13T06:34:09;7.35;;;2.03;;
70216;SDS011;65567;55.684;37.570;2023-07-13T06:36:34;8.45;;;2.05;;
70216;SDS011;65567;55.684;37.570;2023-07-13T06:39:01;4.72;;;1.80;;
70216;SDS011;65567;55.684;37.570;2023-07-13T06:41:28;4.80;;;1.77;;
70216;SDS011;65567;55.684;37.570;2023-07-13T06:43:53;4.50;;;1.88;;
70216;SDS011;65567;55.684;37.570;2023-07-13T06:46:22;4.97;;;1.77;;
70216;SDS011;65567;55.684;37.570;2023-07-13T06:48:48;4.40;;;1.67;;
70216;SDS011;65567;55.684;37.570;2023-07-13T06:51:14;8.00;;;1.92;;
70216;SDS011;65567;55.684;37.570;2023-07-13T06:53:43;3.65;;;2.00;;
70216;SDS011;65567;55.684;37.570;2023-07-13T06:56:09;2.35;;;1.55;;
70216;SDS011;65567;55.684;37.570;2023-07-13T06:58:36;5.40;;;2.00;;
70216;SDS011;65567;55.684;37.570;2023-07-13T07:01:02;3.10;;;1.80;;
70216;SDS011;65567;55.684;37.570;2023-07-13T07:03:28;3.72;;;1.70;;
70216;SDS011;65567;55.684;37.570;2023-07-13T07:05:59;4.05;;;2.00;;
70216;SDS011;65567;55.684;37.570;2023-07-13T07:08:25;8.63;;;2.00;;
70216;SDS011;65567;55.684;37.570;2023-07-13T07:10:51;4.07;;;2.00;;
70216;SDS011;65567;55.684;37.570;2023-07-13T07:13:19;4.55;;;1.90;;
70216;SDS011;65567;55.684;37.570;2023-07-13T07:15:45;6.35;;;1.95;;
70216;SDS011;65567;55.684;37.570;2023-07-13T07:18:11;8.30;;;2.25;;
70216;SDS011;65567;55.684;37.570;2023-07-13T07:20:36;5.00;;;1.75;;
70216;SDS011;65567;55.684;37.570;2023-07-13T07:23:02;4.43;;;3.10;;
70216;SDS011;65567;55.684;37.570;2023-07-13T07:25:28;7.30;;;3.70;;
70216;SDS011;65567;55.684;37.570;2023-07-13T07:27:57;5.57;;;2.50;;
70216;SDS011;65567;55.684;37.570;2023-07-13T07:30:24;7.55;;;3.50;;
70216;SDS011;65567;55.684;37.570;2023-07-13T07:32:50;6.95;;;3.45;;
70216;SDS011;65567;55.684;37.570;2023-07-13T07:35:15;8.63;;;4.13;;
70216;SDS011;65567;55.684;37.570;2023-07-13T07:37:41;8.07;;;4.45;;
70216;SDS011;65567;55.684;37.570;2023-07-13T07:40:07;9.13;;;4.25;;
70216;SDS011;65567;55.684;37.570;2023-07-13T07:42:33;10.52;;;5.60;;
70216;SDS011;65567;55.684;37.570;2023-07-13T07:44:59;12.55;;;6.88;;
70216;SDS011;65567;55.684;37.570;2023-07-13T07:47:26;6.35;;;3.60;;
70216;SDS011;65567;55.684;37.570;2023-07-13T07:49:52;12.50;;;5.55;;
70216;SDS011;65567;55.684;37.570;2023-07-13T07:52:18;28.48;;;11.38;;
70216;SDS011;65567;55.684;37.570;2023-07-13T07:54:43;20.95;;;9.85;;
70216;SDS011;65567;55.684;37.570;2023-07-13T07:57:09;47.03;;;18.27;;
70216;SDS011;65567;55.684;37.570;2023-07-13T07:59:36;42.22;;;16.17;;
70216;SDS011;65567;55.684;37.570;2023-07-13T08:02:02;61.63;;;22.17;;
70216;SDS011;65567;55.684;37.570;2023-07-13T08:04:28;36.20;;;13.75;;
70216;SDS011;65567;55.684;37.570;2023-07-13T08:06:54;28.42;;;11.65;;
70216;SDS011;65567;55.684;37.570;2023-07-13T08:09:21;21.20;;;7.43;;
70216;SDS011;65567;55.684;37.570;2023-07-13T08:11:47;36.28;;;13.43;;
70216;SDS011;65567;55.684;37.570;2023-07-13T08:14:13;25.13;;;9.90;;
70216;SDS011;65567;55.684;37.570;2023-07-13T08:16:39;31.20;;;11.10;;
70216;SDS011;65567;55.684;37.570;2023-07-13T08:19:05;22.90;;;8.35;;
70216;SDS011;65567;55.684;37.570;2023-07-13T08:21:31;18.70;;;7.40;;
70216;SDS011;65567;55.684;37.570;2023-07-13T08:23:57;19.48;;;7.15;;
70216;SDS011;65567;55.684;37.570;2023-07-13T08:26:23;25.80;;;8.60;;
70216;SDS011;65567;55.684;37.570;2023-07-13T08:28:49;16.75;;;5.88;;
70216;SDS011;65567;55.684;37.570;2023-07-13T08:31:14;9.73;;;3.72;;
70216;SDS011;65567;55.684;37.570;2023-07-13T08:33:40;7.63;;;2.95;;
70216;SDS011;65567;55.684;37.570;2023-07-13T08:36:06;10.63;;;3.50;;
70216;SDS011;65567;55.684;37.570;2023-07-13T08:38:32;10.70;;;4.97;;
70216;SDS011;65567;55.684;37.570;2023-07-13T08:40:58;9.02;;;3.58;;
70216;SDS011;65567;55.684;37.570;2023-07-13T08:43:33;8.82;;;3.92;;
70216;SDS011;65567;55.684;37.570;2023-07-13T08:46:06;10.30;;;3.83;;
70216;SDS011;65567;55.684;37.570;2023-07-13T08:54:19;7.55;;;2.97;;
70216;SDS011;65567;55.684;37.570;2023-07-13T08:56:53;6.75;;;3.15;;
70216;SDS011;65567;55.684;37.570;2023-07-13T08:59:24;9.45;;;3.67;;
70216;SDS011;65567;55.684;37.570;2023-07-13T09:04:55;9.05;;;3.50;;
70216;SDS011;65567;55.684;37.570;2023-07-13T09:10:18;5.88;;;3.42;;
70216;SDS011;65567;55.684;37.570;2023-07-13T09:15:40;5.43;;;3.25;;
70216;SDS011;65567;55.684;37.570;2023-07-13T09:18:10;7.18;;;3.63;;
70216;SDS011;65567;55.684;37.570;2023-07-13T09:23:12;14.25;;;6.57;;
70216;SDS011;65567;55.684;37.570;2023-07-13T09:25:43;9.93;;;5.78;;
70216;SDS011;65567;55.684;37.570;2023-07-13T09:28:29;13.27;;;6.85;;
70216;SDS011;65567;55.684;37.570;2023-07-13T09:33:45;8.30;;;4.95;;
70216;SDS011;65567;55.684;37.570;2023-07-13T09:38:45;9.07;;;4.22;;
70216;SDS011;65567;55.684;37.570;2023-07-13T09:41:15;8.60;;;3.75;;
70216;SDS011;65567;55.684;37.570;2023-07-13T09:44:06;7.07;;;3.40;;
70216;SDS011;65567;55.684;37.570;2023-07-13T09:46:34;8.95;;;3.15;;
70216;SDS011;65567;55.684;37.570;2023-07-13T09:49:00;5.47;;;3.47;;
70216;SDS011;65567;55.684;37.570;2023-07-13T09:51:26;5.57;;;3.58;;
70216;SDS011;65567;55.684;37.570;2023-07-13T09:53:52;7.68;;;3.97;;
70216;SDS011;65567;55.684;37.570;2023-07-13T09:56:26;5.85;;;3.20;;
70216;SDS011;65567;55.684;37.570;2023-07-13T09:58:54;7.10;;;3.17;;
70216;SDS011;65567;55.684;37.570;2023-07-13T10:01:34;6.55;;;3.60;;
70216;SDS011;65567;55.684;37.570;2023-07-13T10:04:12;7.18;;;3.38;;
70216;SDS011;65567;55.684;37.570;2023-07-13T10:06:42;6.07;;;3.60;;
70216;SDS011;65567;55.684;37.570;2023-07-13T10:09:08;5.25;;;3.28;;
70216;SDS011;65567;55.684;37.570;2023-07-13T10:11:35;6.63;;;3.45;;
70216;SDS011;65567;55.684;37.570;2023-07-13T10:14:14;6.70;;;3.30;;
70216;SDS011;65567;55.684;37.570;2023-07-13T10:16:42;6.93;;;3.33;;
70216;SDS011;65567;55.684;37.570;2023-07-13T10:21:43;6.22;;;2.95;;
70216;SDS011;65567;55.684;37.570;2023-07-13T10:24:20;5.25;;;2.78;;
70216;SDS011;65567;55.684;37.570;2023-07-13T10:26:50;4.93;;;2.80;;
70216;SDS011;65567;55.684;37.570;2023-07-13T10:29:22;6.15;;;2.97;;
70216;SDS011;65567;55.684;37.570;2023-07-13T10:31:51;6.95;;;2.85;;
70216;SDS011;65567;55.684;37.570;2023-07-13T10:34:17;6.60;;;3.30;;
70216;SDS011;65567;55.684;37.570;2023-07-13T10:36:44;8.02;;;3.25;;
70216;SDS011;65567;55.684;37.570;2023-07-13T10:39:16;4.88;;;3.35;;
70216;SDS011;65567;55.684;37.570;2023-07-13T10:41:55;6.43;;;3.17;;
70216;SDS011;65567;55.684;37.570;2023-07-13T10:44:30;8.48;;;3.17;;
70216;SDS011;65567;55.684;37.570;2023-07-13T10:47:04;5.75;;;3.00;;
70216;SDS011;65567;55.684;37.570;2023-07-13T10:49:34;4.18;;;2.20;;
70216;SDS011;65567;55.684;37.570;2023-07-13T10:52:01;6.28;;;2.60;;
70216;SDS011;65567;55.684;37.570;2023-07-13T10:59:38;5.90;;;2.58;;
70216;SDS011;65567;55.684;37.570;2023-07-13T11:02:09;6.05;;;3.40;;
70216;SDS011;65567;55.684;37.570;2023-07-13T11:04:40;5.43;;;3.47;;
70216;SDS011;65567;55.684;37.570;2023-07-13T11:07:17;7.82;;;3.85;;
70216;SDS011;65567;55.684;37.570;2023-07-13T11:09:53;5.43;;;3.20;;
70216;SDS011;65567;55.684;37.570;2023-07-13T11:17:24;3.35;;;2.65;;
70216;SDS011;65567;55.684;37.570;2023-07-13T11:22:43;3.92;;;2.50;;
70216;SDS011;65567;55.684;37.570;2023-07-13T11:25:33;4.47;;;2.90;;
70216;SDS011;65567;55.684;37.570;2023-07-13T11:36:15;5.72;;;2.75;;
70216;SDS011;65567;55.684;37.570;2023-07-13T11:38:46;5.88;;;2.92;;
70216;SDS011;65567;55.684;37.570;2023-07-13T11:41:31;6.75;;;3.08;;
70216;SDS011;65567;55.684;37.570;2023-07-13T11:44:05;5.85;;;2.85;;
70216;SDS011;65567;55.684;37.570;2023-07-13T11:46:35;4.85;;;3.30;;
70216;SDS011;65567;55.684;37.570;2023-07-13T11:49:04;6.82;;;2.67;;
70216;SDS011;65567;55.684;37.570;2023-07-13T11:51:31;7.43;;;3.13;;
70216;SDS011;65567;55.684;37.570;2023-07-13T11:54:06;7.75;;;3.00;;
70216;SDS011;65567;55.684;37.570;2023-07-13T11:56:41;5.23;;;2.50;;
70216;SDS011;65567;55.684;37.570;2023-07-13T11:59:07;4.80;;;2.60;;
70216;SDS011;65567;55.684;37.570;2023-07-13T12:01:41;3.75;;;2.42;;
70216;SDS011;65567;55.684;37.570;2023-07-13T12:04:15;4.82;;;2.53;;
70216;SDS011;65567;55.684;37.570;2023-07-13T12:07:03;7.28;;;2.70;;
70216;SDS011;65567;55.684;37.570;2023-07-13T12:09:31;5.70;;;2.25;;
70216;SDS011;65567;55.684;37.570;2023-07-13T12:14:28;6.60;;;2.80;;
70216;SDS011;65567;55.684;37.570;2023-07-13T12:16:54;5.43;;;2.40;;
70216;SDS011;65567;55.684;37.570;2023-07-13T12:19:25;5.13;;;2.63;;
70216;SDS011;65567;55.684;37.570;2023-07-13T12:21:56;16.98;;;3.20;;
70216;SDS011;65567;55.684;37.570;2023-07-13T12:24:23;10.02;;;3.40;;
70216;SDS011;65567;55.684;37.570;2023-07-13T12:27:00;7.15;;;2.97;;
70216;SDS011;65567;55.684;37.570;2023-07-13T12:29:29;7.88;;;3.25;;
70216;SDS011;65567;55.684;37.570;2023-07-13T12:31:56;5.32;;;2.30;;
70216;SDS011;65567;55.684;37.570;2023-07-13T12:34:23;5.80;;;2.60;;
70216;SDS011;65567;55.684;37.570;2023-07-13T12:36:52;6.18;;;2.63;;
70216;SDS011;65567;55.684;37.570;2023-07-13T12:39:27;6.82;;;2.97;;
70216;SDS011;65567;55.684;37.570;2023-07-13T12:42:21;12.27;;;3.20;;
70216;SDS011;65567;55.684;37.570;2023-07-13T12:44:48;25.83;;;4.43;;
70216;SDS011;65567;55.684;37.570;2023-07-13T12:47:15;13.48;;;4.15;;
70216;SDS011;65567;55.684;37.570;2023-07-13T12:49:42;12.93;;;3.08;;
70216;SDS011;65567;55.684;37.570;2023-07-13T12:52:14;18.10;;;4.53;;
70216;SDS011;65567;55.684;37.570;2023-07-13T12:54:42;12.25;;;4.13;;
70216;SDS011;65567;55.684;37.570;2023-07-13T12:57:17;16.83;;;4.85;;
70216;SDS011;65567;55.684;37.570;2023-07-13T12:59:43;16.95;;;4.05;;
70216;SDS011;65567;55.684;37.570;2023-07-13T13:02:23;17.02;;;3.97;;
70216;SDS011;65567;55.684;37.570;2023-07-13T13:04:55;6.28;;;3.05;;
70216;SDS011;65567;55.684;37.570;2023-07-13T13:07:22;8.18;;;2.85;;
70216;SDS011;65567;55.684;37.570;2023-07-13T13:09:49;6.63;;;3.10;;
70216;SDS011;65567;55.684;37.570;2023-07-13T13:12:15;4.50;;;2.58;;
70216;SDS011;65567;55.684;37.570;2023-07-13T13:14:42;11.15;;;2.80;;
70216;SDS011;65567;55.684;37.570;2023-07-13T13:17:41;7.03;;;2.70;;
70216;SDS011;65567;55.684;37.570;2023-07-13T13:20:00;4.80;;;2.90;;
70216;SDS011;65567;55.684;37.570;2023-07-13T13:22:27;5.47;;;2.80;;
70216;SDS011;65567;55.684;37.570;2023-07-13T13:24:53;6.20;;;2.60;;
70216;SDS011;65567;55.684;37.570;2023-07-13T13:27:20;6.38;;;2.70;;
70216;SDS011;65567;55.684;37.570;2023-07-13T13:29:49;4.75;;;2.92;;
70216;SDS011;65567;55.684;37.570;2023-07-13T13:32:17;6.57;;;2.70;;
70216;SDS011;65567;55.684;37.570;2023-07-13T13:34:44;7.22;;;3.03;;
70216;SDS011;65567;55.684;37.570;2023-07-13T13:37:15;5.20;;;3.00;;
70216;SDS011;65567;55.684;37.570;2023-07-13T13:39:46;4.45;;;2.47;;
70216;SDS011;65567;55.684;37.570;2023-07-13T13:42:13;5.57;;;2.90;;
70216;SDS011;65567;55.684;37.570;2023-07-13T13:44:39;5.25;;;2.85;;
70216;SDS011;65567;55.684;37.570;2023-07-13T13:47:17;6.72;;;2.72;;
70216;SDS011;65567;55.684;37.570;2023-07-13T13:50:18;5.93;;;3.10;;
70216;SDS011;65567;55.684;37.570;2023-07-13T13:52:47;5.85;;;2.70;;
70216;SDS011;65567;55.684;37.570;2023-07-13T13:55:14;6.32;;;3.03;;
70216;SDS011;65567;55.684;37.570;2023-07-13T13:57:42;7.32;;;3.20;;
70216;SDS011;65567;55.684;37.570;2023-07-13T14:00:09;4.82;;;2.30;;
70216;SDS011;65567;55.684;37.570;2023-07-13T14:02:40;6.20;;;3.00;;
70216;SDS011;65567;55.684;37.570;2023-07-13T14:05:11;7.90;;;3.47;;
70216;SDS011;65567;55.684;37.570;2023-07-13T14:07:39;3.97;;;2.60;;
70216;SDS011;65567;55.684;37.570;2023-07-13T14:10:08;5.10;;;2.55;;
70216;SDS011;65567;55.684;37.570;2023-07-13T14:12:41;4.75;;;2.42;;
70216;SDS011;65567;55.684;37.570;2023-07-13T14:15:30;7.75;;;2.88;;
70216;SDS011;65567;55.684;37.570;2023-07-13T14:17:56;6.50;;;3.03;;
70216;SDS011;65567;55.684;37.570;2023-07-13T14:20:23;5.32;;;3.40;;
70216;SDS011;65567;55.684;37.570;2023-07-13T14:22:51;7.20;;;3.03;;
70216;SDS011;65567;55.684;37.570;2023-07-13T14:25:18;7.78;;;3.50;;
70216;SDS011;65567;55.684;37.570;2023-07-13T14:27:45;7.90;;;3.90;;
70216;SDS011;65567;55.684;37.570;2023-07-13T14:30:16;6.43;;;2.80;;
70216;SDS011;65567;55.684;37.570;2023-07-13T14:32:44;8.45;;;3.50;;
70216;SDS011;65567;55.684;37.570;2023-07-13T14:35:14;6.53;;;3.50;;
70216;SDS011;65567;55.684;37.570;2023-07-13T14:37:41;7.57;;;3.25;;
70216;SDS011;65567;55.684;37.570;2023-07-13T14:40:12;6.13;;;3.17;;
70216;SDS011;65567;55.684;37.570;2023-07-13T14:42:38;4.88;;;2.83;;
70216;SDS011;65567;55.684;37.570;2023-07-13T14:45:04;7.50;;;3.40;;
70216;SDS011;65567;55.684;37.570;2023-07-13T14:47:33;6.95;;;3.35;;
70216;SDS011;65567;55.684;37.570;2023-07-13T14:49:59;7.78;;;3.30;;
70216;SDS011;65567;55.684;37.570;2023-07-13T14:52:27;6.40;;;3.00;;
70216;SDS011;65567;55.684;37.570;2023-07-13T14:54:52;5.88;;;3.35;;
70216;SDS011;65567;55.684;37.570;2023-07-13T14:57:19;7.22;;;3.00;;
70216;SDS011;65567;55.684;37.570;2023-07-13T14:59:45;6.63;;;3.70;;
70216;SDS011;65567;55.684;37.570;2023-07-13T15:02:28;6.05;;;3.25;;
70216;SDS011;65567;55.684;37.570;2023-07-13T15:04:56;6.78;;;3.10;;
70216;SDS011;65567;55.684;37.570;2023-07-13T15:07:23;8.90;;;3.25;;
70216;SDS011;65567;55.684;37.570;2023-07-13T15:09:49;8.70;;;3.20;;
70216;SDS011;65567;55.684;37.570;2023-07-13T15:12:16;8.52;;;3.50;;
70216;SDS011;65567;55.684;37.570;2023-07-13T15:14:42;7.53;;;2.97;;
70216;SDS011;65567;55.684;37.570;2023-07-13T15:19:53;7.13;;;3.70;;
70216;SDS011;65567;55.684;37.570;2023-07-13T15:22:19;15.05;;;3.95;;
70216;SDS011;65567;55.684;37.570;2023-07-13T15:24:44;8.55;;;3.38;;
70216;SDS011;65567;55.684;37.570;2023-07-13T15:27:11;5.70;;;3.00;;
70216;SDS011;65567;55.684;37.570;2023-07-13T15:29:37;7.20;;;3.35;;
70216;SDS011;65567;55.684;37.570;2023-07-13T15:32:03;8.73;;;3.70;;